This is the latest recevied weather packets stored in our database for station/object EA1PVC-10. If no packets are shown the sender has not sent any weather packets the latest 10 day(s).
| Time | Temp. | Humidity | Pressure | Rain* | Wind** | Luminosity | Snow |
|---|---|---|---|---|---|---|---|
| 1777241903 | 17.22° C | 66% | 925 hPa | - | - | - | - |
| 1777241003 | 17.78° C | 65% | 925.1 hPa | - | - | - | - |
| 1777240103 | 17.78° C | 64% | 925.1 hPa | - | - | - | - |
| 1777239203 | 17.78° C | 64% | 925.1 hPa | - | - | - | - |
| 1777238303 | 17.78° C | 64% | 925.1 hPa | - | - | - | - |
| 1777237403 | 17.78° C | 65% | 925.1 hPa | - | - | - | - |
| 1777236503 | 18.33° C | 65% | 925 hPa | - | - | - | - |
| 1777235603 | 18.33° C | 64% | 925 hPa | - | - | - | - |
| 1777234703 | 14.44° C | 65% | 919.1 hPa | - | - | - | - |
| 1777233791 | 19.44° C | 62% | 925 hPa | - | - | - | - |
| 1777232891 | 19.44° C | 62% | 924.4 hPa | - | - | - | - |
| 1777231991 | 19.44° C | 61% | 924.3 hPa | - | - | - | - |
| 1777231091 | 20° C | 60% | 924.1 hPa | - | - | - | - |
| 1777230191 | 20° C | 59% | 923.9 hPa | - | - | - | - |
| 1777229291 | 20° C | 58% | 923.8 hPa | - | - | - | - |
| 1777228391 | 20° C | 57% | 923.8 hPa | - | - | - | - |
| 1777227491 | 20.56° C | 57% | 923.7 hPa | - | - | - | - |
| 1777226591 | 21.11° C | 50% | 923.8 hPa | - | - | - | - |
| 1777225691 | 21.11° C | 50% | 923.9 hPa | - | - | - | - |
| 1777223894 | 19.44° C | 44% | 918.6 hPa | - | - | - | - |
| 1777222079 | 25° C | 38% | 923.6 hPa | - | - | - | - |
| 1777220279 | 25.56° C | 38% | 923.7 hPa | - | - | - | - |
| 1777219379 | 27.78° C | 33% | 923.6 hPa | - | - | - | - |
| 1777218479 | 35.56° C | 23% | 923.7 hPa | - | - | - | - |
| 1777217579 | 38.33° C | 19% | 923.7 hPa | - | - | - | - |
* Rain since midnight (hover to see other rain measurements)
** Current wind speed in m/s (hover to see current wind gust speed)